createdAt,value
2022-09-12T00:00:03.846Z,12.400000
2022-09-12T00:01:00.443Z,12.400000
2022-09-12T00:02:00.530Z,12.400000
2022-09-12T00:03:00.452Z,12.400000
2022-09-12T00:04:02.044Z,12.400000
2022-09-12T00:05:03.391Z,12.400000
2022-09-12T00:06:00.557Z,12.400000
2022-09-12T00:07:00.469Z,12.400000
2022-09-12T00:08:00.535Z,12.400000
2022-09-12T00:09:00.488Z,12.400000
2022-09-12T00:10:04.820Z,12.400000
2022-09-12T00:11:00.493Z,12.400000
2022-09-12T00:12:00.610Z,12.400000
2022-09-12T00:13:00.514Z,12.400000
2022-09-12T00:14:00.559Z,12.400000
2022-09-12T00:15:03.492Z,12.400000
2022-09-12T00:16:00.586Z,12.400000
2022-09-12T00:17:00.539Z,12.400000
2022-09-12T00:18:02.201Z,12.300000
2022-09-12T00:19:00.553Z,12.300000
2022-09-12T00:20:03.733Z,12.300000
2022-09-12T00:21:00.591Z,12.300000
2022-09-12T00:22:00.657Z,12.300000
2022-09-12T00:23:00.589Z,12.300000
2022-09-12T00:24:00.855Z,12.300000
2022-09-12T00:25:03.472Z,12.200000
2022-09-12T00:26:00.694Z,12.200000
2022-09-12T00:27:00.624Z,12.200000
2022-09-12T00:28:00.685Z,12.200000
2022-09-12T00:29:00.630Z,12.200000
2022-09-12T00:30:04.183Z,12.200000
2022-09-12T00:31:00.652Z,12.200000
2022-09-12T00:32:02.031Z,12.200000
2022-09-12T00:33:00.667Z,12.200000
2022-09-12T00:34:00.798Z,12.200000
2022-09-12T00:35:03.543Z,12.100000
2022-09-12T00:36:00.777Z,12.100000
2022-09-12T00:37:00.689Z,12.100000
2022-09-12T00:38:00.770Z,12.100000
2022-09-12T00:39:00.704Z,12.100000
2022-09-12T00:40:04.120Z,12.100000
2022-09-12T00:41:00.719Z,12.100000
2022-09-12T00:42:00.987Z,12.100000
2022-09-12T00:43:00.766Z,12.100000
2022-09-12T00:44:00.807Z,12.100000
2022-09-12T00:45:04.243Z,12.000000
2022-09-12T00:46:02.335Z,12.000000
2022-09-12T00:47:00.793Z,12.000000
2022-09-12T00:48:00.891Z,12.000000
2022-09-12T00:49:00.787Z,12.000000
2022-09-12T00:50:03.961Z,12.000000
2022-09-12T00:51:00.811Z,12.000000
2022-09-12T00:52:00.881Z,12.000000
2022-09-12T00:53:00.825Z,12.000000
2022-09-12T00:54:00.926Z,12.000000
2022-09-12T00:55:03.924Z,12.000000
2022-09-12T00:56:00.916Z,12.000000
2022-09-12T00:57:00.858Z,12.000000
2022-09-12T00:58:00.930Z,11.900000
2022-09-12T00:59:00.869Z,11.900000
2022-09-12T01:00:04.149Z,11.900000
2022-09-12T01:01:01.063Z,11.900000
2022-09-12T01:02:01.128Z,11.900000
2022-09-12T01:03:00.911Z,11.900000
2022-09-12T01:04:00.980Z,11.900000
2022-09-12T01:05:03.914Z,11.900000
2022-09-12T01:06:01.001Z,11.900000
2022-09-12T01:07:00.938Z,11.900000
2022-09-12T01:08:01.012Z,11.900000
2022-09-12T01:09:00.958Z,11.900000
2022-09-12T01:10:04.271Z,11.800000
2022-09-12T01:11:00.961Z,11.800000
2022-09-12T01:12:01.036Z,11.800000
2022-09-12T01:13:00.985Z,11.800000
2022-09-12T01:14:02.396Z,11.800000
2022-09-12T01:15:04.029Z,11.800000
2022-09-12T01:16:01.101Z,11.800000
2022-09-12T01:17:01.010Z,11.800000
2022-09-12T01:18:01.084Z,11.800000
2022-09-12T01:19:01.014Z,11.800000
2022-09-12T01:20:04.509Z,11.800000
2022-09-12T01:21:01.045Z,11.800000
2022-09-12T01:22:01.147Z,11.800000
2022-09-12T01:23:01.049Z,11.800000
2022-09-12T01:24:01.134Z,11.800000
2022-09-12T01:25:03.931Z,11.800000
2022-09-12T01:26:01.136Z,11.800000
2022-09-12T01:27:01.084Z,11.800000
2022-09-12T01:28:02.619Z,11.800000
2022-09-12T01:29:01.091Z,11.800000
2022-09-12T01:30:05.509Z,11.800000
2022-09-12T01:31:01.103Z,11.700000
2022-09-12T01:32:01.191Z,11.700000
2022-09-12T01:33:01.125Z,11.700000
2022-09-12T01:34:01.220Z,11.700000
2022-09-12T01:35:04.009Z,11.700000
2022-09-12T01:36:01.207Z,11.700000
2022-09-12T01:37:01.144Z,11.700000
2022-09-12T01:38:01.220Z,11.700000
2022-09-12T01:39:01.169Z,11.700000
2022-09-12T01:40:06.215Z,11.700000
2022-09-12T01:41:00.184Z,11.700000
2022-09-12T01:42:02.737Z,11.600000
2022-09-12T01:43:00.197Z,11.600000
2022-09-12T01:44:00.273Z,11.600000
2022-09-12T01:45:03.045Z,11.600000
2022-09-12T01:46:00.518Z,11.600000
2022-09-12T01:47:00.229Z,11.600000
2022-09-12T01:48:00.307Z,11.600000
2022-09-12T01:49:00.244Z,11.600000
2022-09-12T01:50:03.494Z,11.600000
2022-09-12T01:51:00.273Z,11.500000
2022-09-12T01:52:00.339Z,11.500000
2022-09-12T01:53:00.264Z,11.500000
2022-09-12T01:54:00.352Z,11.500000
2022-09-12T01:55:07.683Z,11.500000
2022-09-12T01:56:00.339Z,11.500000
2022-09-12T01:57:00.309Z,11.500000
2022-09-12T01:58:00.406Z,11.500000
2022-09-12T01:59:00.317Z,11.500000
2022-09-12T02:00:03.659Z,11.500000
2022-09-12T02:01:00.415Z,11.500000
2022-09-12T02:02:00.497Z,11.500000
2022-09-12T02:03:00.367Z,11.500000
2022-09-12T02:04:00.450Z,11.500000
2022-09-12T02:05:03.168Z,11.500000
2022-09-12T02:06:00.463Z,11.500000
2022-09-12T02:07:00.393Z,11.500000
2022-09-12T02:08:00.461Z,11.500000
2022-09-12T02:09:00.416Z,11.500000
2022-09-12T02:10:03.780Z,11.500000
2022-09-12T02:11:00.430Z,11.500000
2022-09-12T02:12:00.511Z,11.500000
2022-09-12T02:13:00.442Z,11.500000
2022-09-12T02:14:00.519Z,11.500000
2022-09-12T02:15:03.226Z,11.500000
2022-09-12T02:16:00.563Z,11.500000
2022-09-12T02:17:00.466Z,11.500000
2022-09-12T02:18:02.983Z,11.500000
2022-09-12T02:19:00.482Z,11.500000
2022-09-12T02:20:04.800Z,11.500000
2022-09-12T02:21:00.493Z,11.500000
2022-09-12T02:22:00.593Z,11.500000
2022-09-12T02:23:00.499Z,11.500000
2022-09-12T02:24:00.585Z,11.600000
2022-09-12T02:25:03.508Z,11.600000
2022-09-12T02:26:00.591Z,11.600000
2022-09-12T02:27:00.559Z,11.600000
2022-09-12T02:28:00.642Z,11.600000
2022-09-12T02:29:00.542Z,11.600000
2022-09-12T02:30:03.715Z,11.600000
2022-09-12T02:31:00.631Z,11.600000
2022-09-12T02:32:00.627Z,11.600000
2022-09-12T02:33:00.576Z,11.600000
2022-09-12T02:34:00.696Z,11.600000
2022-09-12T02:35:04.148Z,11.600000
2022-09-12T02:36:01.916Z,11.600000
2022-09-12T02:37:00.604Z,11.600000
2022-09-12T02:38:00.668Z,11.600000
2022-09-12T02:39:00.636Z,11.600000
2022-09-12T02:40:03.838Z,11.600000
2022-09-12T02:41:00.624Z,11.600000
2022-09-12T02:42:00.712Z,11.600000
2022-09-12T02:43:00.641Z,11.600000
2022-09-12T02:44:00.717Z,11.600000
2022-09-12T02:45:04.775Z,11.600000
2022-09-12T02:46:00.811Z,11.600000
2022-09-12T02:47:00.677Z,11.600000
2022-09-12T02:48:00.736Z,11.600000
2022-09-12T02:49:00.691Z,11.600000
2022-09-12T02:50:04.080Z,11.600000
2022-09-12T02:51:00.738Z,11.600000
2022-09-12T02:52:00.762Z,11.600000
2022-09-12T02:53:00.703Z,11.600000
2022-09-12T02:54:00.792Z,11.600000
2022-09-12T02:55:03.705Z,11.600000
2022-09-12T02:56:00.794Z,11.600000
2022-09-12T02:57:00.770Z,11.600000
2022-09-12T02:58:00.833Z,11.600000
2022-09-12T02:59:00.754Z,11.600000
2022-09-12T03:00:04.187Z,11.600000
2022-09-12T03:01:00.835Z,11.600000
2022-09-12T03:02:00.925Z,11.600000
2022-09-12T03:03:00.836Z,11.600000
2022-09-12T03:04:01.918Z,11.600000
2022-09-12T03:05:03.736Z,11.600000
2022-09-12T03:06:00.926Z,11.600000
2022-09-12T03:07:00.828Z,11.600000
2022-09-12T03:08:00.917Z,11.600000
2022-09-12T03:09:00.883Z,11.600000
2022-09-12T03:10:04.117Z,11.500000
2022-09-12T03:11:00.853Z,11.500000
2022-09-12T03:12:00.936Z,11.500000
2022-09-12T03:13:00.865Z,11.500000
2022-09-12T03:14:00.947Z,11.500000
2022-09-12T03:15:04.074Z,11.500000
2022-09-12T03:16:00.958Z,11.500000
2022-09-12T03:17:00.890Z,11.400000
2022-09-12T03:18:01.930Z,11.400000
2022-09-12T03:19:00.910Z,11.400000
2022-09-12T03:20:04.258Z,11.400000
2022-09-12T03:21:00.938Z,11.400000
2022-09-12T03:22:01.034Z,11.400000
2022-09-12T03:23:00.938Z,11.400000
2022-09-12T03:24:01.022Z,11.400000
2022-09-12T03:25:03.915Z,11.400000
2022-09-12T03:26:01.218Z,11.400000
2022-09-12T03:27:00.975Z,11.400000
2022-09-12T03:28:01.039Z,11.400000
2022-09-12T03:29:00.982Z,11.400000
2022-09-12T03:30:05.953Z,11.400000
2022-09-12T03:31:01.059Z,11.400000
2022-09-12T03:32:02.076Z,11.400000
2022-09-12T03:33:01.017Z,11.400000
2022-09-12T03:34:01.130Z,11.400000
2022-09-12T03:35:03.831Z,11.400000
2022-09-12T03:36:01.111Z,11.400000
2022-09-12T03:37:01.036Z,11.300000
2022-09-12T03:38:01.159Z,11.300000
2022-09-12T03:39:01.066Z,11.300000
2022-09-12T03:40:04.382Z,11.300000
2022-09-12T03:41:01.071Z,11.300000
2022-09-12T03:42:01.138Z,11.300000
2022-09-12T03:43:01.078Z,11.300000
2022-09-12T03:44:01.206Z,11.300000
2022-09-12T03:45:03.937Z,11.300000
2022-09-12T03:46:01.687Z,11.300000
2022-09-12T03:47:01.110Z,11.300000
2022-09-12T03:48:01.181Z,11.300000
2022-09-12T03:49:01.114Z,11.400000
2022-09-12T03:50:04.553Z,11.400000
2022-09-12T03:51:01.145Z,11.400000
2022-09-12T03:52:01.211Z,11.400000
2022-09-12T03:53:01.150Z,11.400000
2022-09-12T03:54:01.256Z,11.400000
2022-09-12T03:55:04.348Z,11.300000
2022-09-12T03:56:01.260Z,11.300000
2022-09-12T03:57:00.185Z,11.300000
2022-09-12T03:58:00.285Z,11.300000
2022-09-12T03:59:00.194Z,11.300000
2022-09-12T04:00:03.460Z,11.300000
2022-09-12T04:01:00.294Z,11.300000
2022-09-12T04:02:00.344Z,11.300000
2022-09-12T04:03:00.240Z,11.300000
2022-09-12T04:04:00.298Z,11.300000
2022-09-12T04:05:03.179Z,11.300000
2022-09-12T04:06:00.337Z,11.300000
2022-09-12T04:07:00.267Z,11.300000
2022-09-12T04:08:00.349Z,11.300000
2022-09-12T04:09:00.279Z,11.300000
2022-09-12T04:10:04.013Z,11.200000
2022-09-12T04:11:00.290Z,11.200000
2022-09-12T04:12:00.373Z,11.200000
2022-09-12T04:13:00.334Z,11.300000
2022-09-12T04:14:00.424Z,11.300000
2022-09-12T04:15:06.664Z,11.300000
2022-09-12T04:16:00.406Z,11.300000
2022-09-12T04:17:00.353Z,11.300000
2022-09-12T04:18:05.691Z,11.300000
2022-09-12T04:19:00.361Z,11.300000
2022-09-12T04:20:03.779Z,11.200000
2022-09-12T04:21:00.383Z,11.200000
2022-09-12T04:22:00.435Z,11.200000
2022-09-12T04:23:00.381Z,11.200000
2022-09-12T04:24:00.468Z,11.200000
2022-09-12T04:25:03.827Z,11.200000
2022-09-12T04:26:00.539Z,11.200000
2022-09-12T04:27:02.813Z,11.200000
2022-09-12T04:28:00.500Z,11.200000
2022-09-12T04:29:00.437Z,11.200000
2022-09-12T04:30:03.847Z,11.200000
2022-09-12T04:31:00.527Z,11.200000
2022-09-12T04:32:01.724Z,11.200000
2022-09-12T04:33:03.014Z,11.100000
2022-09-12T04:34:00.523Z,11.100000
2022-09-12T04:35:03.469Z,11.100000
2022-09-12T04:36:00.568Z,11.100000
2022-09-12T04:37:00.505Z,11.100000
2022-09-12T04:38:00.599Z,11.100000
2022-09-12T04:39:00.517Z,11.200000
2022-09-12T04:40:05.076Z,11.200000
2022-09-12T04:41:00.523Z,11.200000
2022-09-12T04:42:00.634Z,11.200000
2022-09-12T04:43:00.534Z,11.100000
2022-09-12T04:44:00.639Z,11.100000
2022-09-12T04:45:03.422Z,11.100000
2022-09-12T04:46:01.667Z,11.100000
2022-09-12T04:47:00.570Z,11.100000
2022-09-12T04:48:00.642Z,11.200000
2022-09-12T04:49:00.570Z,11.200000
2022-09-12T04:50:06.840Z,11.200000
2022-09-12T04:51:00.612Z,11.100000
2022-09-12T04:52:00.679Z,11.100000
2022-09-12T04:53:00.638Z,11.100000
2022-09-12T04:56:33.517Z,11.100000
2022-09-12T04:57:00.669Z,11.100000
2022-09-12T04:58:00.757Z,11.100000
2022-09-12T04:59:00.673Z,11.200000
2022-09-12T05:00:07.077Z,11.200000
2022-09-12T05:01:00.890Z,11.200000
2022-09-12T05:03:00.723Z,11.200000
2022-09-12T05:03:18.565Z,11.200000
2022-09-12T05:04:01.654Z,11.200000
2022-09-12T05:05:03.766Z,11.200000
2022-09-12T05:06:00.819Z,11.200000
2022-09-12T05:07:00.803Z,11.200000
2022-09-12T05:08:00.842Z,11.200000
2022-09-12T05:09:00.772Z,11.200000
2022-09-12T05:12:05.312Z,11.200000
2022-09-12T05:13:00.793Z,11.200000
2022-09-12T05:14:00.921Z,11.200000
2022-09-12T05:15:05.080Z,11.200000
2022-09-12T05:16:00.873Z,11.200000
2022-09-12T05:17:00.873Z,11.200000
2022-09-12T05:18:01.660Z,11.200000
2022-09-12T05:19:00.832Z,11.200000
2022-09-12T05:20:06.136Z,11.200000
2022-09-12T05:21:00.871Z,11.100000
2022-09-12T05:22:01.670Z,11.100000
2022-09-12T05:23:00.878Z,11.100000
2022-09-12T05:24:00.963Z,11.100000
2022-09-12T05:25:04.997Z,11.100000
2022-09-12T05:26:00.988Z,11.100000
2022-09-12T05:27:00.904Z,11.100000
2022-09-12T05:28:00.991Z,11.100000
2022-09-12T05:29:00.911Z,11.100000
2022-09-12T05:30:05.307Z,11.100000
2022-09-12T05:31:00.974Z,11.100000
2022-09-12T05:32:01.044Z,11.100000
2022-09-12T05:33:00.946Z,11.200000
2022-09-12T05:34:01.014Z,11.200000
2022-09-12T05:35:05.077Z,11.200000
2022-09-12T05:36:01.652Z,11.300000
2022-09-12T05:37:00.972Z,11.300000
2022-09-12T05:38:01.092Z,11.300000
2022-09-12T05:39:00.996Z,11.300000
2022-09-12T05:40:07.790Z,11.500000
2022-09-12T05:41:01.006Z,11.500000
2022-09-12T05:42:01.093Z,11.500000
2022-09-12T05:43:01.015Z,11.700000
2022-09-12T05:44:01.109Z,11.700000
2022-09-12T05:45:04.055Z,11.700000
2022-09-12T05:46:01.237Z,12.000000
2022-09-12T05:47:01.056Z,12.000000
2022-09-12T05:48:01.138Z,12.000000
2022-09-12T05:49:01.061Z,12.100000
2022-09-12T05:50:04.477Z,12.100000
2022-09-12T05:51:01.101Z,12.300000
2022-09-12T05:52:01.165Z,12.300000
2022-09-12T05:53:01.106Z,12.300000
2022-09-12T05:54:01.692Z,12.400000
2022-09-12T05:55:04.003Z,12.400000
2022-09-12T05:56:01.712Z,12.400000
2022-09-12T05:57:01.144Z,12.600000
2022-09-12T05:58:01.199Z,12.600000
2022-09-12T05:59:01.149Z,12.700000
2022-09-12T06:00:04.396Z,12.700000
2022-09-12T06:01:01.232Z,12.700000
2022-09-12T06:02:01.402Z,12.800000
2022-09-12T06:03:01.193Z,12.800000
2022-09-12T06:04:01.657Z,12.900000
2022-09-12T06:05:04.921Z,12.900000
2022-09-12T06:06:01.335Z,12.900000
2022-09-12T06:07:01.217Z,12.900000
2022-09-12T06:08:01.746Z,12.900000
2022-09-12T06:09:01.240Z,13.100000
2022-09-12T06:10:05.703Z,13.100000
2022-09-12T06:11:02.375Z,13.100000
2022-09-12T06:12:01.665Z,13.200000
2022-09-12T06:13:01.261Z,13.200000
2022-09-12T06:14:01.382Z,13.300000
2022-09-12T06:15:07.638Z,13.300000
2022-09-12T06:16:01.655Z,13.300000
2022-09-12T06:17:01.354Z,13.600000
2022-09-12T06:18:01.528Z,13.600000
2022-09-12T06:19:01.315Z,13.600000
2022-09-12T06:20:05.032Z,13.700000
2022-09-12T06:21:01.349Z,13.700000
2022-09-12T06:22:01.415Z,13.800000
2022-09-12T06:23:01.346Z,13.800000
2022-09-12T06:24:01.671Z,14.000000
2022-09-12T06:25:05.746Z,14.000000
2022-09-12T06:26:01.428Z,14.100000
2022-09-12T06:27:01.415Z,14.100000
2022-09-12T06:28:01.672Z,14.100000
2022-09-12T06:29:01.388Z,14.100000
2022-09-12T06:30:04.979Z,14.100000
2022-09-12T06:31:01.596Z,14.100000
2022-09-12T06:32:01.691Z,14.200000
2022-09-12T06:33:01.427Z,14.200000
2022-09-12T06:34:01.659Z,14.200000
2022-09-12T06:35:04.410Z,14.200000
2022-09-12T06:36:01.700Z,14.200000
2022-09-12T06:37:01.472Z,14.100000
2022-09-12T06:38:01.518Z,14.100000
2022-09-12T06:39:01.496Z,14.200000
2022-09-12T06:40:06.141Z,14.200000
2022-09-12T06:41:01.472Z,14.200000
2022-09-12T06:42:01.546Z,14.100000
2022-09-12T06:43:01.510Z,14.100000
2022-09-12T06:44:01.672Z,14.100000
2022-09-12T06:45:04.831Z,14.100000
2022-09-12T06:46:01.641Z,14.100000
2022-09-12T06:47:01.564Z,14.100000
2022-09-12T06:48:01.721Z,14.100000
2022-09-12T06:49:01.541Z,14.200000
2022-09-12T06:50:06.072Z,14.200000
2022-09-12T06:51:01.548Z,14.200000
2022-09-12T06:52:01.707Z,14.300000
2022-09-12T06:53:00.644Z,14.300000
2022-09-12T06:54:00.626Z,14.400000
2022-09-12T06:55:03.560Z,14.400000
2022-09-12T06:56:01.680Z,14.400000
2022-09-12T06:57:00.585Z,14.500000
2022-09-12T06:58:00.709Z,14.500000
2022-09-12T06:59:00.594Z,14.600000
2022-09-12T07:00:05.239Z,14.600000
2022-09-12T07:01:01.653Z,14.600000
2022-09-12T07:02:01.729Z,14.800000
2022-09-12T07:03:01.650Z,14.800000
2022-09-12T07:04:01.700Z,14.800000
2022-09-12T07:05:05.837Z,15.000000
2022-09-12T07:06:01.798Z,15.000000
2022-09-12T07:07:01.771Z,15.300000
2022-09-12T07:08:01.727Z,15.300000
2022-09-12T07:09:01.674Z,15.300000
2022-09-12T07:10:20.296Z,15.300000
2022-09-12T07:11:01.705Z,15.300000
2022-09-12T07:12:01.794Z,15.300000
2022-09-12T07:13:01.750Z,15.300000
2022-09-12T07:14:01.781Z,15.300000
2022-09-12T07:15:06.500Z,15.300000
2022-09-12T07:16:01.784Z,15.300000
2022-09-12T07:17:01.862Z,15.300000
2022-09-12T07:18:01.860Z,15.300000
2022-09-12T07:19:01.755Z,15.300000
2022-09-12T07:20:07.143Z,15.500000
2022-09-12T07:21:01.785Z,15.500000
2022-09-12T07:22:00.921Z,15.600000
2022-09-12T07:23:00.810Z,15.600000
2022-09-12T07:24:01.721Z,15.600000
2022-09-12T07:25:04.008Z,15.800000
2022-09-12T07:26:00.887Z,15.800000
2022-09-12T07:27:00.845Z,15.800000
2022-09-12T07:28:01.677Z,15.900000
2022-09-12T07:29:19.104Z,15.900000
2022-09-12T07:30:06.170Z,15.900000
2022-09-12T07:31:00.899Z,15.900000
2022-09-12T07:32:01.682Z,15.900000
2022-09-12T07:33:00.884Z,15.900000
2022-09-12T07:34:00.941Z,15.900000
2022-09-12T07:35:03.984Z,16.100000
2022-09-12T07:36:01.747Z,16.100000
2022-09-12T07:37:00.908Z,16.100000
2022-09-12T07:38:01.420Z,16.200000
2022-09-12T07:39:01.019Z,16.200000
2022-09-12T07:40:05.392Z,16.200000
2022-09-12T07:41:01.095Z,16.100000
2022-09-12T07:42:01.042Z,16.100000
2022-09-12T07:43:00.950Z,16.200000
2022-09-12T07:44:01.888Z,16.200000
2022-09-12T07:45:05.425Z,16.300000
2022-09-12T07:46:01.110Z,16.300000
2022-09-12T07:47:00.990Z,16.300000
2022-09-12T07:48:01.715Z,16.400000
2022-09-12T07:49:00.998Z,16.400000
2022-09-12T07:50:04.413Z,16.400000
2022-09-12T07:51:01.017Z,16.500000
2022-09-12T07:52:01.690Z,16.500000
2022-09-12T07:53:01.146Z,16.500000
2022-09-12T07:54:01.171Z,16.500000
2022-09-12T07:55:04.618Z,16.600000
2022-09-12T07:56:01.729Z,16.600000
2022-09-12T07:57:01.065Z,16.600000
2022-09-12T07:58:01.132Z,16.600000
2022-09-12T07:59:01.093Z,16.600000
2022-09-12T08:00:05.504Z,16.600000
2022-09-12T08:01:00.145Z,16.600000
2022-09-12T08:02:00.167Z,16.600000
2022-09-12T08:03:00.105Z,16.600000
2022-09-12T08:04:01.711Z,16.700000
2022-09-12T08:05:06.846Z,16.700000
2022-09-12T08:06:00.210Z,16.700000
2022-09-12T08:07:00.291Z,16.700000
2022-09-12T08:08:01.688Z,16.800000
2022-09-12T08:09:00.164Z,16.800000
2022-09-12T08:10:06.497Z,16.800000
2022-09-12T08:11:00.203Z,16.800000
2022-09-12T08:12:01.679Z,16.800000
2022-09-12T08:13:00.188Z,17.000000
2022-09-12T08:14:00.282Z,17.000000
2022-09-12T08:15:03.339Z,17.000000
2022-09-12T08:16:01.772Z,17.000000
2022-09-12T08:17:00.221Z,17.000000
2022-09-12T08:18:00.350Z,17.100000
2022-09-12T08:19:00.320Z,17.100000
2022-09-12T08:20:04.588Z,17.100000
2022-09-12T08:21:00.305Z,17.300000
2022-09-12T08:22:00.344Z,17.300000
2022-09-12T08:23:00.255Z,17.500000
2022-09-12T08:24:01.701Z,17.500000
2022-09-12T08:25:03.091Z,17.500000
2022-09-12T08:26:04.133Z,17.700000
2022-09-12T08:27:00.399Z,17.700000
2022-09-12T08:28:01.765Z,17.700000
2022-09-12T08:29:00.312Z,17.700000
2022-09-12T08:30:04.622Z,17.700000
2022-09-12T08:31:00.416Z,17.700000
2022-09-12T08:32:01.688Z,17.700000
2022-09-12T08:33:00.347Z,17.700000
2022-09-12T08:34:00.459Z,17.700000
2022-09-12T08:35:03.377Z,17.700000
2022-09-12T08:36:01.701Z,17.700000
2022-09-12T08:37:00.366Z,17.700000
2022-09-12T08:38:00.440Z,17.900000
2022-09-12T08:39:00.675Z,17.900000
2022-09-12T08:40:03.910Z,18.100000
2022-09-12T08:41:00.396Z,18.100000
2022-09-12T08:42:00.574Z,18.100000
2022-09-12T08:43:00.407Z,18.300000
2022-09-12T08:44:00.475Z,18.300000
2022-09-12T08:45:03.214Z,18.300000
2022-09-12T08:46:00.601Z,18.500000
2022-09-12T08:47:00.441Z,18.500000
2022-09-12T08:48:00.720Z,18.600000
2022-09-12T08:49:00.458Z,18.600000
2022-09-12T08:50:05.032Z,18.700000
2022-09-12T08:51:00.481Z,18.700000
2022-09-12T08:52:00.565Z,18.700000
2022-09-12T08:53:00.493Z,18.900000
2022-09-12T08:54:01.696Z,18.900000
2022-09-12T08:55:03.593Z,18.900000
2022-09-12T08:56:01.702Z,19.000000
2022-09-12T08:57:00.521Z,19.000000
2022-09-12T08:58:00.645Z,19.000000
2022-09-12T08:59:00.574Z,18.900000
2022-09-12T09:00:06.701Z,18.900000
2022-09-12T09:01:01.538Z,19.100000
2022-09-12T09:02:02.457Z,19.100000
2022-09-12T09:03:01.613Z,19.100000
2022-09-12T09:04:02.779Z,19.100000
2022-09-12T09:05:05.674Z,19.100000
2022-09-12T09:06:01.786Z,19.100000
2022-09-12T09:07:01.765Z,19.100000
2022-09-12T09:08:03.531Z,19.100000
2022-09-12T09:09:01.604Z,19.200000
2022-09-12T09:10:07.402Z,19.200000
2022-09-12T09:11:01.626Z,19.300000
2022-09-12T09:12:02.381Z,19.300000
2022-09-12T09:13:01.674Z,19.100000
2022-09-12T09:14:05.003Z,19.100000
2022-09-12T09:15:06.486Z,19.100000
2022-09-12T09:16:01.845Z,19.200000
2022-09-12T09:17:01.707Z,19.200000
2022-09-12T09:18:01.746Z,19.200000
2022-09-12T09:19:01.681Z,19.200000
2022-09-12T09:20:07.112Z,19.200000
2022-09-12T09:21:01.711Z,19.200000
2022-09-12T09:22:01.763Z,19.400000
2022-09-12T09:23:01.719Z,19.400000
2022-09-12T09:24:01.848Z,19.500000
2022-09-12T09:25:04.754Z,19.500000
2022-09-12T09:26:01.820Z,19.600000
2022-09-12T09:27:01.772Z,19.600000
2022-09-12T09:28:01.818Z,19.600000
2022-09-12T09:29:01.826Z,19.800000
2022-09-12T09:30:06.324Z,19.800000
2022-09-12T09:31:01.880Z,19.900000
2022-09-12T09:32:01.868Z,19.900000
2022-09-12T09:33:01.866Z,19.900000
2022-09-12T09:34:01.847Z,19.900000
2022-09-12T09:35:06.296Z,19.900000
2022-09-12T09:36:02.056Z,20.000000
2022-09-12T09:37:01.853Z,20.000000
2022-09-12T09:38:01.988Z,20.000000
2022-09-12T09:39:01.942Z,19.900000
2022-09-12T09:40:05.426Z,19.900000
2022-09-12T09:41:00.961Z,19.900000
2022-09-12T09:42:01.736Z,20.100000
2022-09-12T09:43:00.902Z,20.100000
2022-09-12T09:44:01.174Z,20.200000
2022-09-12T09:45:05.432Z,20.200000
2022-09-12T09:46:01.750Z,20.200000
2022-09-12T09:47:01.008Z,20.400000
2022-09-12T09:48:01.311Z,20.400000
2022-09-12T09:49:01.888Z,20.400000
2022-09-12T09:50:04.344Z,20.700000
2022-09-12T09:51:00.921Z,20.700000
2022-09-12T09:52:01.354Z,20.700000
2022-09-12T09:53:00.930Z,20.700000
2022-09-12T09:54:01.837Z,20.900000
2022-09-12T09:55:05.583Z,20.900000
2022-09-12T09:56:01.769Z,20.900000
2022-09-12T09:57:00.969Z,21.000000
2022-09-12T09:58:01.402Z,21.000000
2022-09-12T09:59:00.973Z,21.000000
2022-09-12T10:00:05.426Z,21.000000
2022-09-12T10:01:00.139Z,21.000000
2022-09-12T10:02:00.120Z,21.200000
2022-09-12T10:03:00.096Z,21.200000
2022-09-12T10:04:01.718Z,21.300000
2022-09-12T10:05:03.329Z,21.300000
2022-09-12T10:06:00.115Z,21.300000
2022-09-12T10:07:00.319Z,21.600000
2022-09-12T10:08:01.712Z,21.600000
2022-09-12T10:09:00.052Z,21.600000
2022-09-12T10:10:03.281Z,21.500000
2022-09-12T10:11:00.068Z,21.500000
2022-09-12T10:12:02.178Z,21.400000
2022-09-12T10:13:00.082Z,21.400000
2022-09-12T10:14:00.144Z,21.400000
2022-09-12T10:15:03.149Z,21.600000
2022-09-12T10:16:01.788Z,21.600000
2022-09-12T10:17:00.104Z,21.700000
2022-09-12T10:18:00.206Z,21.700000
2022-09-12T10:19:00.126Z,21.700000
2022-09-12T10:20:20.420Z,21.700000
2022-09-12T10:21:00.141Z,21.700000
2022-09-12T10:22:00.183Z,21.800000
2022-09-12T10:23:00.201Z,21.800000
2022-09-12T10:24:01.746Z,21.800000
2022-09-12T10:25:03.279Z,21.800000
2022-09-12T10:26:00.229Z,21.800000
2022-09-12T10:27:00.214Z,21.700000
2022-09-12T10:28:01.729Z,21.700000
2022-09-12T10:29:00.184Z,21.800000
2022-09-12T10:30:03.622Z,21.800000
2022-09-12T10:31:00.237Z,21.800000
2022-09-12T10:32:02.123Z,22.000000
2022-09-12T10:33:00.220Z,22.000000
2022-09-12T10:34:00.275Z,22.100000
2022-09-12T10:35:03.434Z,22.100000
2022-09-12T10:36:01.763Z,22.100000
2022-09-12T10:37:00.336Z,22.200000
2022-09-12T10:38:00.396Z,22.200000
2022-09-12T10:39:00.254Z,22.400000
2022-09-12T10:40:05.124Z,22.400000
2022-09-12T10:41:00.401Z,22.400000
2022-09-12T10:42:00.656Z,22.400000
2022-09-12T10:43:00.286Z,22.400000
2022-09-12T10:44:01.067Z,22.400000
2022-09-12T10:45:04.633Z,22.300000
2022-09-12T10:46:00.558Z,22.300000
2022-09-12T10:47:00.319Z,22.300000
2022-09-12T10:48:05.507Z,22.400000
2022-09-12T10:49:00.369Z,22.400000
2022-09-12T10:50:05.964Z,22.400000
2022-09-12T10:51:00.368Z,22.400000
2022-09-12T10:52:00.524Z,22.500000
2022-09-12T10:53:00.369Z,22.500000
2022-09-12T10:54:00.668Z,22.500000
2022-09-12T10:55:03.384Z,22.500000
2022-09-12T10:56:02.829Z,22.500000
2022-09-12T10:57:00.411Z,22.500000
2022-09-12T10:58:01.034Z,22.500000
2022-09-12T10:59:00.422Z,22.500000
2022-09-12T11:00:04.096Z,22.700000
2022-09-12T11:01:00.504Z,22.700000
2022-09-12T11:02:01.128Z,22.600000
2022-09-12T11:03:00.460Z,22.600000
2022-09-12T11:04:01.810Z,22.600000
2022-09-12T11:05:03.525Z,23.000000
2022-09-12T11:06:01.901Z,23.000000
2022-09-12T11:07:00.512Z,23.000000
2022-09-12T11:08:00.562Z,22.800000
2022-09-12T11:09:00.504Z,22.800000
2022-09-12T11:10:04.890Z,22.700000
2022-09-12T11:11:00.531Z,22.700000
2022-09-12T11:12:01.257Z,22.700000
2022-09-12T11:13:00.531Z,22.800000
2022-09-12T11:14:00.634Z,22.800000
2022-09-12T11:15:03.611Z,22.800000
2022-09-12T11:16:00.692Z,22.800000
2022-09-12T11:17:00.566Z,22.800000
2022-09-12T11:18:01.506Z,22.400000
2022-09-12T11:19:00.609Z,22.400000
2022-09-12T11:20:05.243Z,22.600000
2022-09-12T11:21:00.682Z,22.600000
2022-09-12T11:22:01.696Z,22.600000
2022-09-12T11:23:00.616Z,23.100000
2022-09-12T11:24:01.856Z,23.100000
2022-09-12T11:25:03.432Z,23.100000
2022-09-12T11:26:00.735Z,23.100000
2022-09-12T11:27:00.664Z,23.100000
2022-09-12T11:28:00.712Z,23.300000